Ledbetter, Kentucky
Current Conditions -  °F | °C
As of 9:53 AM on Thursday 27 Nov 2014 (Local Time) from KPAH Reporting Station
Overcast Overcast  
Wind Chill: 23°   Ceiling: 2400
Heat Index: 33°   Visibility: 9mi
Dew Point: 24°   Wind: 16mph
Humidity: 70%   Direction: 340°NNW
Pressure: 30.49"   Gusts: NA
Location:  37.05°N, 88.5°W
Report Text: KPAH 271553Z 34014KT 9SM OVC024 01/M04 A3049 RMK AO2 SLP327 T00061044
Loading
Personal Weather Stations






























Interactive Weather Map New forecast layout! Learn more

10-Day Weather Forecast

Advertisements
Track Severe Weather on mobile